sensor_id;sensor_type;location;lat;lon;timestamp;temperature;humidity
17671;DHT22;8954;48.694;8.940;2023-06-14T06:25:52;17.40;99.90
17671;DHT22;8954;48.694;8.940;2023-06-14T06:28:18;17.20;99.90
17671;DHT22;8954;48.694;8.940;2023-06-14T06:30:44;17.40;99.90
17671;DHT22;8954;48.694;8.940;2023-06-14T06:33:09;17.50;99.90
17671;DHT22;8954;48.694;8.940;2023-06-14T06:35:35;17.70;99.90
17671;DHT22;8954;48.694;8.940;2023-06-14T06:38:01;17.90;99.90
17671;DHT22;8954;48.694;8.940;2023-06-14T06:40:27;18.10;99.90
17671;DHT22;8954;48.694;8.940;2023-06-14T06:42:52;18.30;99.90
17671;DHT22;8954;48.694;8.940;2023-06-14T06:45:18;18.40;99.90
17671;DHT22;8954;48.694;8.940;2023-06-14T06:47:44;18.70;99.90
17671;DHT22;8954;48.694;8.940;2023-06-14T06:50:09;18.90;99.90
17671;DHT22;8954;48.694;8.940;2023-06-14T06:52:35;18.90;99.90
17671;DHT22;8954;48.694;8.940;2023-06-14T06:55:01;19.10;99.90
17671;DHT22;8954;48.694;8.940;2023-06-14T06:57:27;19.30;99.90
17671;DHT22;8954;48.694;8.940;2023-06-14T06:59:54;19.40;99.20
17671;DHT22;8954;48.694;8.940;2023-06-14T07:02:20;19.70;97.90
17671;DHT22;8954;48.694;8.940;2023-06-14T07:04:45;19.60;98.00
17671;DHT22;8954;48.694;8.940;2023-06-14T07:07:11;19.80;98.10
17671;DHT22;8954;48.694;8.940;2023-06-14T07:09:37;20.10;97.20
17671;DHT22;8954;48.694;8.940;2023-06-14T07:12:03;20.20;96.20
17671;DHT22;8954;48.694;8.940;2023-06-14T07:14:28;20.00;96.40
17671;DHT22;8954;48.694;8.940;2023-06-14T07:16:55;20.10;95.70
17671;DHT22;8954;48.694;8.940;2023-06-14T07:19:21;20.30;95.20
17671;DHT22;8954;48.694;8.940;2023-06-14T07:21:46;20.30;95.00
17671;DHT22;8954;48.694;8.940;2023-06-14T07:24:12;20.40;94.70
17671;DHT22;8954;48.694;8.940;2023-06-14T07:26:40;20.50;94.50
17671;DHT22;8954;48.694;8.940;2023-06-14T07:29:05;20.50;94.00
17671;DHT22;8954;48.694;8.940;2023-06-14T07:31:31;20.60;93.50
17671;DHT22;8954;48.694;8.940;2023-06-14T07:33:56;20.90;92.70
17671;DHT22;8954;48.694;8.940;2023-06-14T07:36:22;21.20;92.60
17671;DHT22;8954;48.694;8.940;2023-06-14T07:38:48;21.30;92.10
17671;DHT22;8954;48.694;8.940;2023-06-14T07:41:13;21.50;92.40
17671;DHT22;8954;48.694;8.940;2023-06-14T07:43:39;21.80;91.50
17671;DHT22;8954;48.694;8.940;2023-06-14T07:46:05;21.90;90.90
17671;DHT22;8954;48.694;8.940;2023-06-14T07:48:30;21.90;90.40
17671;DHT22;8954;48.694;8.940;2023-06-14T07:50:56;21.60;89.90
17671;DHT22;8954;48.694;8.940;2023-06-14T07:53:22;21.50;90.20
17671;DHT22;8954;48.694;8.940;2023-06-14T07:55:47;21.70;91.30
17671;DHT22;8954;48.694;8.940;2023-06-14T07:58:14;21.90;87.20
17671;DHT22;8954;48.694;8.940;2023-06-14T08:00:39;21.90;87.40
17671;DHT22;8954;48.694;8.940;2023-06-14T08:03:05;21.90;86.20
17671;DHT22;8954;48.694;8.940;2023-06-14T08:05:30;22.00;86.70
17671;DHT22;8954;48.694;8.940;2023-06-14T08:07:56;22.10;86.40
17671;DHT22;8954;48.694;8.940;2023-06-14T08:10:22;22.30;86.20
17671;DHT22;8954;48.694;8.940;2023-06-14T08:12:48;22.00;84.40
17671;DHT22;8954;48.694;8.940;2023-06-14T08:15:15;22.00;85.50
17671;DHT22;8954;48.694;8.940;2023-06-14T08:17:45;22.00;84.80
17671;DHT22;8954;48.694;8.940;2023-06-14T08:20:11;22.00;85.20
17671;DHT22;8954;48.694;8.940;2023-06-14T08:22:37;22.20;84.40
17671;DHT22;8954;48.694;8.940;2023-06-14T08:25:03;22.60;83.70
17671;DHT22;8954;48.694;8.940;2023-06-14T08:27:30;22.70;82.30
17671;DHT22;8954;48.694;8.940;2023-06-14T08:29:56;22.90;82.60
17671;DHT22;8954;48.694;8.940;2023-06-14T08:32:22;23.20;82.00
17671;DHT22;8954;48.694;8.940;2023-06-14T08:34:48;23.50;82.00
17671;DHT22;8954;48.694;8.940;2023-06-14T08:37:13;23.60;81.70
17671;DHT22;8954;48.694;8.940;2023-06-14T08:39:39;23.80;81.00
17671;DHT22;8954;48.694;8.940;2023-06-14T08:42:06;23.90;79.10
17671;DHT22;8954;48.694;8.940;2023-06-14T08:44:33;24.00;79.90
17671;DHT22;8954;48.694;8.940;2023-06-14T08:46:59;24.20;78.00
17671;DHT22;8954;48.694;8.940;2023-06-14T08:49:26;24.30;77.20
17671;DHT22;8954;48.694;8.940;2023-06-14T08:51:58;24.30;77.50
17671;DHT22;8954;48.694;8.940;2023-06-14T08:54:25;24.50;78.20
17671;DHT22;8954;48.694;8.940;2023-06-14T08:56:53;24.70;75.30
17671;DHT22;8954;48.694;8.940;2023-06-14T08:59:24;24.70;74.80
17671;DHT22;8954;48.694;8.940;2023-06-14T09:01:51;24.70;76.30
17671;DHT22;8954;48.694;8.940;2023-06-14T09:04:18;24.80;76.00
17671;DHT22;8954;48.694;8.940;2023-06-14T09:06:45;24.80;74.20
17671;DHT22;8954;48.694;8.940;2023-06-14T09:09:11;25.00;75.50
17671;DHT22;8954;48.694;8.940;2023-06-14T09:11:37;25.10;72.70
17671;DHT22;8954;48.694;8.940;2023-06-14T09:14:03;25.00;72.90
17671;DHT22;8954;48.694;8.940;2023-06-14T09:16:28;24.90;74.00
17671;DHT22;8954;48.694;8.940;2023-06-14T09:18:54;25.00;73.70
17671;DHT22;8954;48.694;8.940;2023-06-14T09:21:20;25.30;72.40
17671;DHT22;8954;48.694;8.940;2023-06-14T09:23:47;25.40;72.40
17671;DHT22;8954;48.694;8.940;2023-06-14T09:26:15;25.40;72.00
17671;DHT22;8954;48.694;8.940;2023-06-14T09:28:42;25.70;71.90
17671;DHT22;8954;48.694;8.940;2023-06-14T09:31:09;25.80;72.50
17671;DHT22;8954;48.694;8.940;2023-06-14T09:33:35;26.00;71.40
17671;DHT22;8954;48.694;8.940;2023-06-14T09:36:01;26.30;70.50
17671;DHT22;8954;48.694;8.940;2023-06-14T09:38:26;26.50;70.20
17671;DHT22;8954;48.694;8.940;2023-06-14T09:40:52;27.00;68.80
17671;DHT22;8954;48.694;8.940;2023-06-14T09:43:19;27.40;67.70
17671;DHT22;8954;48.694;8.940;2023-06-14T09:45:47;27.60;65.00
17671;DHT22;8954;48.694;8.940;2023-06-14T09:48:14;28.10;65.70
17671;DHT22;8954;48.694;8.940;2023-06-14T09:50:46;28.50;64.10
17671;DHT22;8954;48.694;8.940;2023-06-14T09:53:14;28.80;62.80
17671;DHT22;8954;48.694;8.940;2023-06-14T09:55:41;29.50;61.20
17671;DHT22;8954;48.694;8.940;2023-06-14T09:58:08;30.50;61.20
17671;DHT22;8954;48.694;8.940;2023-06-14T10:00:36;30.60;56.30
17671;DHT22;8954;48.694;8.940;2023-06-14T10:03:27;30.60;55.70
17671;DHT22;8954;48.694;8.940;2023-06-14T10:05:55;30.80;55.30
17671;DHT22;8954;48.694;8.940;2023-06-14T10:08:25;30.40;53.80
17671;DHT22;8954;48.694;8.940;2023-06-14T10:10:54;31.00;53.30
17671;DHT22;8954;48.694;8.940;2023-06-14T10:13:20;32.00;53.10
17671;DHT22;8954;48.694;8.940;2023-06-14T10:16:07;32.50;52.10
17671;DHT22;8954;48.694;8.940;2023-06-14T10:18:43;32.90;51.70
17671;DHT22;8954;48.694;8.940;2023-06-14T10:21:23;33.30;49.40
17671;DHT22;8954;48.694;8.940;2023-06-14T10:23:51;32.30;48.70
17671;DHT22;8954;48.694;8.940;2023-06-14T10:26:22;32.00;49.60
17671;DHT22;8954;48.694;8.940;2023-06-14T10:28:57;32.70;48.40
17671;DHT22;8954;48.694;8.940;2023-06-14T10:31:43;33.30;47.80
17671;DHT22;8954;48.694;8.940;2023-06-14T10:34:09;34.00;47.30
17671;DHT22;8954;48.694;8.940;2023-06-14T10:36:34;34.50;47.40
17671;DHT22;8954;48.694;8.940;2023-06-14T10:39:17;35.20;44.30
17671;DHT22;8954;48.694;8.940;2023-06-14T10:41:53;35.30;44.00
17671;DHT22;8954;48.694;8.940;2023-06-14T10:46:54;35.60;43.50
17671;DHT22;8954;48.694;8.940;2023-06-14T10:49:39;35.70;44.30
17671;DHT22;8954;48.694;8.940;2023-06-14T10:52:11;36.30;43.20
17671;DHT22;8954;48.694;8.940;2023-06-14T10:57:29;36.70;41.10
17671;DHT22;8954;48.694;8.940;2023-06-14T10:59:57;37.70;41.30
17671;DHT22;8954;48.694;8.940;2023-06-14T11:05:27;38.80;39.60
17671;DHT22;8954;48.694;8.940;2023-06-14T11:08:18;38.70;39.00
17671;DHT22;8954;48.694;8.940;2023-06-14T11:13:13;39.70;39.30
17671;DHT22;8954;48.694;8.940;2023-06-14T11:15:44;39.40;39.60
17671;DHT22;8954;48.694;8.940;2023-06-14T11:18:12;37.60;40.80
17671;DHT22;8954;48.694;8.940;2023-06-14T11:20:39;36.90;42.20
17671;DHT22;8954;48.694;8.940;2023-06-14T11:23:05;38.00;41.90
17671;DHT22;8954;48.694;8.940;2023-06-14T11:25:31;37.80;41.00
17671;DHT22;8954;48.694;8.940;2023-06-14T11:27:57;37.60;40.70
17671;DHT22;8954;48.694;8.940;2023-06-14T11:30:23;37.70;40.60
17671;DHT22;8954;48.694;8.940;2023-06-14T11:32:50;37.80;41.30
17671;DHT22;8954;48.694;8.940;2023-06-14T11:35:17;37.90;40.40
17671;DHT22;8954;48.694;8.940;2023-06-14T11:37:44;37.50;40.70
17671;DHT22;8954;48.694;8.940;2023-06-14T11:40:11;37.00;41.50
17671;DHT22;8954;48.694;8.940;2023-06-14T11:42:41;37.20;42.40
17671;DHT22;8954;48.694;8.940;2023-06-14T11:45:11;37.00;42.60
17671;DHT22;8954;48.694;8.940;2023-06-14T11:47:40;37.50;42.10
17671;DHT22;8954;48.694;8.940;2023-06-14T11:50:07;35.50;43.40
17671;DHT22;8954;48.694;8.940;2023-06-14T11:52:34;33.60;45.30
17671;DHT22;8954;48.694;8.940;2023-06-14T11:54:59;33.10;46.30
17671;DHT22;8954;48.694;8.940;2023-06-14T11:57:25;33.70;45.70
17671;DHT22;8954;48.694;8.940;2023-06-14T11:59:51;35.50;44.00
17671;DHT22;8954;48.694;8.940;2023-06-14T12:02:18;36.60;43.00
17671;DHT22;8954;48.694;8.940;2023-06-14T12:04:47;37.60;42.70
17671;DHT22;8954;48.694;8.940;2023-06-14T12:07:15;36.80;43.30
17671;DHT22;8954;48.694;8.940;2023-06-14T12:12:25;35.20;43.50
17671;DHT22;8954;48.694;8.940;2023-06-14T12:14:51;32.60;45.90
17671;DHT22;8954;48.694;8.940;2023-06-14T12:17:18;32.80;45.90
17671;DHT22;8954;48.694;8.940;2023-06-14T12:19:45;34.20;45.00
17671;DHT22;8954;48.694;8.940;2023-06-14T12:22:12;35.60;44.10
17671;DHT22;8954;48.694;8.940;2023-06-14T12:24:38;35.50;43.90
17671;DHT22;8954;48.694;8.940;2023-06-14T12:27:05;35.50;43.30
17671;DHT22;8954;48.694;8.940;2023-06-14T12:29:31;36.30;43.50
17671;DHT22;8954;48.694;8.940;2023-06-14T12:31:57;37.00;42.70
17671;DHT22;8954;48.694;8.940;2023-06-14T12:34:23;37.50;41.60
17671;DHT22;8954;48.694;8.940;2023-06-14T12:36:56;38.40;41.00
17671;DHT22;8954;48.694;8.940;2023-06-14T12:39:22;37.50;41.40
17671;DHT22;8954;48.694;8.940;2023-06-14T12:41:48;37.80;40.80
17671;DHT22;8954;48.694;8.940;2023-06-14T12:44:14;38.70;40.60
17671;DHT22;8954;48.694;8.940;2023-06-14T12:46:41;38.30;40.40
17671;DHT22;8954;48.694;8.940;2023-06-14T12:49:11;37.10;41.10
17671;DHT22;8954;48.694;8.940;2023-06-14T12:51:38;35.90;41.90
17671;DHT22;8954;48.694;8.940;2023-06-14T12:54:04;35.80;42.60
17671;DHT22;8954;48.694;8.940;2023-06-14T12:56:30;37.20;41.90
17671;DHT22;8954;48.694;8.940;2023-06-14T12:58:56;37.70;41.10
17671;DHT22;8954;48.694;8.940;2023-06-14T13:01:21;37.80;41.00
17671;DHT22;8954;48.694;8.940;2023-06-14T13:03:47;38.10;40.30
17671;DHT22;8954;48.694;8.940;2023-06-14T13:06:13;38.40;40.40
17671;DHT22;8954;48.694;8.940;2023-06-14T13:08:39;38.00;41.70
17671;DHT22;8954;48.694;8.940;2023-06-14T13:11:04;38.30;40.80
17671;DHT22;8954;48.694;8.940;2023-06-14T13:13:30;39.00;40.20
17671;DHT22;8954;48.694;8.940;2023-06-14T13:15:56;39.10;39.80
17671;DHT22;8954;48.694;8.940;2023-06-14T13:18:21;38.40;40.40
17671;DHT22;8954;48.694;8.940;2023-06-14T13:20:47;38.40;40.50
17671;DHT22;8954;48.694;8.940;2023-06-14T13:23:13;38.70;40.50
17671;DHT22;8954;48.694;8.940;2023-06-14T13:25:39;38.40;40.40
17671;DHT22;8954;48.694;8.940;2023-06-14T13:28:05;37.80;40.50
17671;DHT22;8954;48.694;8.940;2023-06-14T13:30:32;36.80;42.10
17671;DHT22;8954;48.694;8.940;2023-06-14T13:32:58;37.10;41.60
17671;DHT22;8954;48.694;8.940;2023-06-14T13:35:24;37.00;40.50
17671;DHT22;8954;48.694;8.940;2023-06-14T13:37:50;37.40;40.90
17671;DHT22;8954;48.694;8.940;2023-06-14T13:40:15;37.60;41.40
17671;DHT22;8954;48.694;8.940;2023-06-14T13:42:41;38.00;40.00
17671;DHT22;8954;48.694;8.940;2023-06-14T13:45:08;38.80;40.00
17671;DHT22;8954;48.694;8.940;2023-06-14T13:47:33;38.30;39.70
17671;DHT22;8954;48.694;8.940;2023-06-14T13:49:59;38.70;39.10
17671;DHT22;8954;48.694;8.940;2023-06-14T13:52:25;38.40;39.60
17671;DHT22;8954;48.694;8.940;2023-06-14T13:54:51;38.30;39.80
17671;DHT22;8954;48.694;8.940;2023-06-14T13:57:17;38.20;39.70
17671;DHT22;8954;48.694;8.940;2023-06-14T13:59:43;38.50;40.40
17671;DHT22;8954;48.694;8.940;2023-06-14T14:02:13;38.50;39.80
17671;DHT22;8954;48.694;8.940;2023-06-14T14:04:40;39.50;39.60
17671;DHT22;8954;48.694;8.940;2023-06-14T14:07:06;39.00;39.80
17671;DHT22;8954;48.694;8.940;2023-06-14T14:09:33;38.80;39.40
17671;DHT22;8954;48.694;8.940;2023-06-14T14:12:02;38.80;39.20
17671;DHT22;8954;48.694;8.940;2023-06-14T14:14:29;39.20;39.30
17671;DHT22;8954;48.694;8.940;2023-06-14T14:16:55;38.70;39.90
17671;DHT22;8954;48.694;8.940;2023-06-14T14:19:22;38.40;39.90
17671;DHT22;8954;48.694;8.940;2023-06-14T14:21:47;37.60;40.00
17671;DHT22;8954;48.694;8.940;2023-06-14T14:24:13;37.90;40.30
17671;DHT22;8954;48.694;8.940;2023-06-14T14:26:39;37.70;40.30
17671;DHT22;8954;48.694;8.940;2023-06-14T14:29:05;38.30;40.50
17671;DHT22;8954;48.694;8.940;2023-06-14T14:31:32;38.40;39.80
17671;DHT22;8954;48.694;8.940;2023-06-14T14:33:57;38.80;39.70
17671;DHT22;8954;48.694;8.940;2023-06-14T14:36:23;38.30;39.50
17671;DHT22;8954;48.694;8.940;2023-06-14T14:38:48;38.20;40.20
17671;DHT22;8954;48.694;8.940;2023-06-14T14:41:14;37.90;39.80
17671;DHT22;8954;48.694;8.940;2023-06-14T14:43:40;38.00;39.60
17671;DHT22;8954;48.694;8.940;2023-06-14T14:46:06;37.90;40.70
17671;DHT22;8954;48.694;8.940;2023-06-14T14:48:31;37.50;40.30
17671;DHT22;8954;48.694;8.940;2023-06-14T14:50:57;37.50;41.20
17671;DHT22;8954;48.694;8.940;2023-06-14T14:53:23;37.50;41.50
17671;DHT22;8954;48.694;8.940;2023-06-14T14:55:49;37.60;40.90
17671;DHT22;8954;48.694;8.940;2023-06-14T14:58:15;37.10;41.30
17671;DHT22;8954;48.694;8.940;2023-06-14T15:00:46;36.40;41.90
17671;DHT22;8954;48.694;8.940;2023-06-14T15:03:12;35.40;41.80
17671;DHT22;8954;48.694;8.940;2023-06-14T15:05:38;35.10;43.30
17671;DHT22;8954;48.694;8.940;2023-06-14T15:08:04;35.50;43.20
17671;DHT22;8954;48.694;8.940;2023-06-14T15:10:35;35.50;42.70
17671;DHT22;8954;48.694;8.940;2023-06-14T15:13:01;35.20;42.60
17671;DHT22;8954;48.694;8.940;2023-06-14T15:15:26;35.90;42.40
17671;DHT22;8954;48.694;8.940;2023-06-14T15:17:52;36.40;42.10
17671;DHT22;8954;48.694;8.940;2023-06-14T15:20:18;36.40;42.10
17671;DHT22;8954;48.694;8.940;2023-06-14T15:22:43;36.50;41.90
17671;DHT22;8954;48.694;8.940;2023-06-14T15:25:09;36.40;42.10
17671;DHT22;8954;48.694;8.940;2023-06-14T15:27:34;37.00;42.10
17671;DHT22;8954;48.694;8.940;2023-06-14T15:30:01;36.50;41.80
17671;DHT22;8954;48.694;8.940;2023-06-14T15:32:26;35.70;42.10
17671;DHT22;8954;48.694;8.940;2023-06-14T15:34:52;35.90;42.70
